Flight Track Log - Related Links

Times and Time Zones

All times are in EDT time to prevent confusion due to time zone crossing. See the AAL362 flight status page for this flight to view local times or setup timezone preferences in your user account.

Time Position Orientation Groundspeed Altitude Reporting Facility
EDT Latitude Longitude Course Direction KTS MPH feet Rate Location/Type
Sun 03:56:26 PM 42.0167 -87.8667 90° East 164 189 2,000  Level Chicago TRACON
Sun 03:57:26 PM 42.0167 -87.8000 90° East 236 272 3,800 2,341 Climbing Chicago TRACON
Sun 03:58:00 PM 41.9543 -87.4180 95° East  Level FlightAware Approximate
Sun 03:59:00 PM 41.9430 -87.2579 96° East  Level FlightAware Approximate
Sun 03:59:28 PM 42.0011 -87.5847 95° East 288 331 9,100  Level Chicago Center
Sun 04:00:00 PM 41.9333 -87.0977 90° East  Level FlightAware Approximate
Sun 04:00:30 PM 41.9878 -87.4675 99° East 310 357 12,000  Level Chicago Center
Sun 04:01:00 PM 41.9333 -86.9369 90° East  Level FlightAware Approximate
Sun 04:01:32 PM 41.9753 -87.3444 98° East 328 377 14,000  Level Chicago Center
Sun 04:02:34 PM 41.9606 -87.2036 98° East 373 429 15,500 1,790 Climbing Chicago Center
Sun 04:03:36 PM 41.9467 -87.0514 97° East 403 464 17,700 2,390 Climbing Chicago Center
Sun 04:04:37 PM 41.9481 -86.8956 89° East 415 478 20,400 2,244 Climbing Chicago Center
Sun 04:05:39 PM 41.9506 -86.7011 89° East 432 497 22,300 1,742 Climbing Chicago Center
Sun 04:06:41 PM 41.9528 -86.5531 89° East 446 513 24,000 1,306 Climbing Chicago Center
Sun 04:07:43 PM 41.9542 -86.3822 89° East 454 522 25,000 484 Climbing Chicago Center
Sun 04:08:45 PM 41.9531 -86.1781 90° East 456 525 25,000  Level Chicago Center
Sun 04:10:00 PM 41.9340 -85.9931 98° East  Level FlightAware Approximate
Sun 04:10:50 PM 41.9206 -85.8369 98° East 460 529 25,000  Level Chicago Center
Sun 04:11:52 PM 41.9050 -85.6675 97° East 457 526 25,000  Level Chicago Center
Sun 04:12:54 PM 41.8881 -85.4956 97° East 460 529 25,000  Level Chicago Center
Sun 04:13:56 PM 41.8708 -85.3231 98° East 460 529 25,000  Level Chicago Center
Sun 04:14:58 PM 41.8536 -85.1497 98° East 461 531 25,000  Level Chicago Center
Sun 04:16:00 PM 41.8353 -84.9786 98° East 461 531 25,000  Level Chicago Center
Sun 04:17:02 PM 41.8150 -84.7733 97° East 464 534 25,000  Level Chicago Center
Sun 04:17:35 PM 41.8089 -84.7008 96° East 450 518 25,000  Level Cleveland Center
Sun 04:18:35 PM 41.7919 -84.5300 98° East 450 518 25,000  Level Cleveland Center
Sun 04:19:35 PM 41.7789 -84.3619 96° East 450 518 25,000  Level Cleveland Center
Sun 04:20:35 PM 41.7744 -84.1753 92° East 450 518 25,000  Level Cleveland Center
Sun 04:21:35 PM 41.7714 -84.0022 91° East 450 518 25,000  Level Cleveland Center
Sun 04:22:35 PM 41.7722 -83.8325 90° East 455 524 25,000  Level Cleveland Center
Sun 04:23:35 PM 41.7706 -83.6625 91° East 455 524 25,000  Level Cleveland Center
Sun 04:24:35 PM 41.7642 -83.5092 93° East 461 531 25,000  Level Cleveland Center
Sun 04:25:35 PM 41.7475 -83.3414 98° East 461 531 25,000  Level Cleveland Center
Sun 04:26:35 PM 41.7328 -83.1708 97° East 461 531 25,000  Level Cleveland Center
Sun 04:27:35 PM 41.7156 -83.0006 98° East 461 531 25,000  Level Cleveland Center
Sun 04:28:35 PM 41.6981 -82.8331 98° East 461 531 25,000  Level Cleveland Center
Sun 04:29:35 PM 41.6825 -82.6628 97° East 461 531 25,000  Level Cleveland Center
Sun 04:30:35 PM 41.6625 -82.4925 99° East 467 537 25,000  Level Cleveland Center
Sun 04:31:35 PM 41.6447 -82.3058 97° East 462 532 25,000  Level Cleveland Center
Sun 04:32:35 PM 41.6264 -82.1361 98° East 462 532 25,000  Level Cleveland Center
Sun 04:33:35 PM 41.6097 -81.9661 97° East 468 539 25,000  Level Cleveland Center
Sun 04:34:35 PM 41.5928 -81.8131 98° East 468 539 25,000  Level Cleveland Center
Sun 04:35:35 PM 41.5714 -81.6406 99° East 468 539 25,000  Level Cleveland Center
Sun 04:36:35 PM 41.5522 -81.4656 98° East 468 539 25,000  Level Cleveland Center
Sun 04:37:35 PM 41.5325 -81.2961 99° East 468 539 25,000  Level Cleveland Center
Sun 04:38:35 PM 41.5106 -81.1072 99° East 468 539 25,000  Level Cleveland Center
Sun 04:39:35 PM 41.4944 -80.9353 97° East 468 539 25,000  Level Cleveland Center
Sun 04:40:35 PM 41.4803 -80.7633 96° East 468 539 25,000  Level Cleveland Center
Sun 04:41:35 PM 41.4639 -80.5858 97° East 468 539 25,000  Level Cleveland Center
Sun 04:42:35 PM 41.4492 -80.4114 96° East 469 540 25,000  Level Cleveland Center
Sun 04:43:35 PM 41.4342 -80.2369 96° East 469 540 25,000  Level Cleveland Center
Sun 04:44:35 PM 41.4169 -80.0625 97° East 474 545 25,000  Level Cleveland Center
Sun 04:45:35 PM 41.3972 -79.8856 98° East 474 545 25,000  Level Cleveland Center
Sun 04:46:35 PM 41.3814 -79.7086 97° East 479 551 25,000  Level Cleveland Center
Sun 04:47:35 PM 41.3675 -79.5511 97° East 485 558 25,000  Level Cleveland Center
Sun 04:48:35 PM 41.3492 -79.3744 98° East 485 558 25,000  Level Cleveland Center
Sun 04:49:35 PM 41.3261 -79.1814 99° East 480 552 25,000  Level Cleveland Center
Sun 04:50:35 PM 41.3092 -79.0075 97° East 480 552 25,000  Level Cleveland Center
Sun 04:51:35 PM 41.2944 -78.8475 97° East 480 552 25,000  Level Cleveland Center
Sun 04:52:35 PM 41.2747 -78.6686 98° East 485 558 25,000  Level Cleveland Center
Sun 04:53:35 PM 41.2550 -78.4922 98° East 485 558 25,000  Level Cleveland Center
Sun 04:54:35 PM 41.2328 -78.2978 99° East 479 551 25,000  Level New York Center
Sun 04:55:36 PM 41.2133 -78.1411 99° East 479 551 25,000  Level New York Center
Sun 04:56:35 PM 41.1931 -77.9622 99° East 484 557 25,000  Level New York Center
Sun 04:57:35 PM 41.1703 -77.7861 100° East 484 557 25,000  Level New York Center
Sun 04:58:36 PM 41.1472 -77.6103 100° East 484 557 25,000  Level New York Center
Sun 04:59:36 PM 41.1231 -77.4122 99° East 491 565 25,000  Level New York Center
Sun 05:00:34 PM 41.0994 -77.2389 100° East 485 558 25,000  Level New York Center
Sun 05:01:34 PM 41.0758 -77.0578 100° East 485 558 25,000  Level New York Center
Sun 05:02:34 PM 41.0517 -76.8794 100° East 491 565 25,000 -397 Level New York Center
Sun 05:03:35 PM 41.0272 -76.7039 100° East 491 565 24,200 -1,488 Descending New York Center
Sun 05:04:35 PM 40.9919 -76.5331 105° East 491 565 22,000 -2,231 Descending New York Center
Sun 05:05:36 PM 40.9517 -76.3731 108° East 480 552 19,700 -2,231 Descending New York Center
Sun 05:06:36 PM 40.9156 -76.2081 106° East 461 531 17,500 -2,067 Descending New York Center
Sun 05:07:35 PM 40.8803 -76.0681 108° East 451 519 15,600 -2,000 Descending New York Center
Sun 05:08:36 PM 40.8397 -75.9031 108° East 445 512 13,500 -1,289 Descending New York Center
Sun 05:09:36 PM 40.8025 -75.7522 108° East 433 498 13,000 -254 Descending New York Center
Sun 05:10:34 PM 40.7667 -75.6069 108° East 428 493 13,000  Level New York Center
Sun 05:11:35 PM 40.7289 -75.4592 109° East 423 487 13,000 -443 Level New York Center
Sun 05:12:36 PM 40.7031 -75.3233 104° East 430 495 12,100 -992 Descending New York Center
Sun 05:13:36 PM 40.6672 -75.1650 107° East 419 482 11,000 -1,068 Descending New York Center
Sun 05:14:34 PM 40.6025 -75.0597 129° Southeast 398 458 10,000 -555 Descending New York Center
Sun 05:15:35 PM 40.5464 -74.9361 121° Southeast 403 464 9,900  Descending New York Center
Sun 05:16:35 PM 40.4997 -74.7803 111° Southeast 403 464 10,000 50 Climbing New York Center
Sun 05:17:35 PM 40.4583 -74.6442 112° Southeast 403 464 10,000  Level New York Center
Sun 05:18:39 PM 40.4500 -74.4833 94° East 400 460 10,000 -387 Level New York TRACON
Sun 05:19:39 PM 40.4667 -74.3667 79° East 329 379 9,200 -1,050 Descending New York TRACON
Sun 05:20:39 PM 40.5000 -74.2667 66° East 315 362 7,900 -1,350 Descending New York TRACON
Sun 05:21:39 PM 40.5333 -74.1667 66° East 295 339 6,500 -1,350 Descending New York TRACON
Sun 05:22:39 PM 40.5500 -74.0667 78° East 255 293 5,200 -1,150 Descending New York TRACON
Sun 05:23:39 PM 40.6000 -74.0167 37° Northeast 220 253 4,200 -1,000 Descending New York TRACON
Sun 05:24:39 PM 40.6500 -73.9833 27° Northeast 210 242 3,200 -800 Descending New York TRACON
Sun 05:25:39 PM 40.7000 -73.9333 37° Northeast 185 213 2,600 -600 Descending New York TRACON

Login

Don't have an account? Register now (free) for customized features, flight alerts, and more!